Time;durP1;ratioP1;P1;durP2;ratioP2;P2;SDS_P1;SDS_P2;PMS_P1;PMS_P2;Temp;Humidity;BMP_temperature;BMP_pressure;BME280_temperature;BME280_humidity;BME280_pressure;Samples;Min_cycle;Max_cycle;Signal;HPM_P1;HPM_P2
2021/09/01 00:00:05;;;;;;;9.32;6.95;;;487.30;2380.80;;;;;;5033851;28;20034;-76
2021/09/01 00:02:31;;;;;;;10.07;7.68;;;512.00;2380.80;;;;;;5032643;28;20030;-77
2021/09/01 00:04:57;;;;;;;8.75;6.82;;;512.00;2380.80;;;;;;5033897;28;20044;-76
2021/09/01 00:07:23;;;;;;;8.80;6.85;;;512.00;2380.80;;;;;;5033345;28;20061;-78
2021/09/01 00:09:48;;;;;;;8.73;6.85;;;512.10;2380.80;;;;;;5032637;28;20033;-77
2021/09/01 00:12:14;;;;;;;7.63;6.68;;;512.20;2380.80;;;;;;5034065;28;20372;-77
2021/09/01 00:14:40;;;;;;;10.02;7.20;;;512.30;2380.80;;;;;;5032280;28;20025;-78
2021/09/01 00:17:06;;;;;;;10.65;7.70;;;512.30;2380.80;;;;;;5032506;28;20025;-78
2021/09/01 00:19:32;;;;;;;10.55;7.28;;;512.20;2380.80;;;;;;5032452;28;20029;-78
2021/09/01 00:21:58;;;;;;;10.13;6.38;;;512.20;2380.80;;;;;;5033431;28;20021;-77
2021/09/01 00:24:24;;;;;;;11.07;7.13;;;512.20;2380.80;;;;;;5033698;28;20041;-77
2021/09/01 00:26:49;;;;;;;8.02;6.35;;;512.10;2380.80;;;;;;5032083;28;20026;-77
2021/09/01 00:29:15;;;;;;;7.90;5.93;;;512.10;2380.80;;;;;;5032068;28;20054;-78
2021/09/01 00:31:41;;;;;;;8.93;5.88;;;512.10;2380.80;;;;;;5033565;28;20449;-77
2021/09/01 00:34:07;;;;;;;14.07;6.57;;;512.20;2380.80;;;;;;5032104;28;20037;-78
2021/09/01 00:36:33;;;;;;;8.70;6.53;;;512.10;2380.80;;;;;;5034097;28;20057;-77
2021/09/01 00:38:59;;;;;;;8.98;6.13;;;512.10;2380.80;;;;;;5032388;28;20108;-79
2021/09/01 00:41:26;;;;;;;9.35;6.18;;;512.10;2380.80;;;;;;5033133;28;20091;-77
2021/09/01 00:43:54;;;;;;;9.55;6.28;;;512.10;2380.80;;;;;;5032224;28;20032;-79
2021/09/01 00:46:21;;;;;;;10.88;6.50;;;512.10;2380.80;;;;;;5032310;28;20030;-78
2021/09/01 00:48:48;;;;;;;10.02;6.22;;;487.30;2380.80;;;;;;5031988;28;20029;-78
2021/09/01 00:51:18;;;;;;;9.38;6.50;;;487.30;2380.80;;;;;;5032209;28;20053;-77
2021/09/01 00:53:46;;;;;;;10.15;6.43;;;487.30;2380.80;;;;;;5035237;28;20029;-79
2021/09/01 00:56:22;;;;;;;9.23;5.97;;;487.30;2380.80;;;;;;5036127;28;20373;-78
2021/09/01 00:58:48;;;;;;;6.90;6.13;;;512.00;2380.80;;;;;;5037468;28;20096;-78
2021/09/01 01:01:16;;;;;;;7.63;6.13;;;487.10;2380.80;;;;;;5037255;28;20030;-78
2021/09/01 01:03:48;;;;;;;8.00;6.70;;;487.10;2380.80;;;;;;5035696;28;20428;-78
2021/09/01 01:06:16;;;;;;;8.50;6.78;;;487.10;2380.80;;;;;;5035986;28;20030;-79
2021/09/01 01:08:42;;;;;;;11.07;7.20;;;487.00;2380.80;;;;;;5035598;28;20025;-78
2021/09/01 01:11:13;;;;;;;8.38;6.82;;;487.10;2380.80;;;;;;5035838;28;20465;-79
2021/09/01 01:13:40;;;;;;;9.75;7.72;;;487.10;2380.80;;;;;;5036806;28;20084;-78
2021/09/01 01:16:06;;;;;;;8.35;7.45;;;487.10;2380.80;;;;;;5035372;28;20029;-78
2021/09/01 01:18:32;;;;;;;8.07;6.68;;;487.10;2380.80;;;;;;5037087;28;20029;-78
2021/09/01 01:20:58;;;;;;;8.85;6.55;;;487.00;2380.80;;;;;;5035776;28;20087;-79
2021/09/01 01:23:24;;;;;;;8.02;6.18;;;487.00;2380.80;;;;;;5035131;28;20436;-78
2021/09/01 01:25:51;;;;;;;9.63;7.55;;;486.90;2380.80;;;;;;5035597;28;20049;-78
2021/09/01 01:28:17;;;;;;;10.35;6.75;;;486.90;2380.80;;;;;;5035178;28;20033;-77
2021/09/01 01:30:43;;;;;;;9.95;6.88;;;487.00;2380.80;;;;;;5034928;28;20044;-79
2021/09/01 01:33:09;;;;;;;10.80;6.95;;;486.80;2380.80;;;;;;5035344;28;20470;-77
2021/09/01 01:35:44;;;;;;;8.45;6.80;;;486.90;2380.80;;;;;;5035310;28;20116;-78
2021/09/01 01:38:13;;;;;;;8.50;6.93;;;486.90;2380.80;;;;;;5035212;28;20026;-79
2021/09/01 01:40:40;;;;;;;7.22;6.43;;;486.90;2380.80;;;;;;5036448;28;20022;-78
2021/09/01 01:43:07;;;;;;;9.00;6.00;;;487.00;2380.80;;;;;;5036637;28;20026;-78
2021/09/01 01:45:53;;;;;;;8.40;6.50;;;487.00;2380.80;;;;;;5035842;28;20389;-78
2021/09/01 01:48:19;;;;;;;8.23;6.65;;;486.80;2380.80;;;;;;5035038;28;20116;-79
2021/09/01 01:50:45;;;;;;;8.85;6.28;;;486.80;2380.80;;;;;;5034753;28;20037;-79
2021/09/01 01:53:11;;;;;;;10.55;7.80;;;486.80;2380.80;;;;;;5034829;28;20030;-78
2021/09/01 01:55:37;;;;;;;9.38;6.38;;;486.70;2380.80;;;;;;5034921;28;20029;-79
2021/09/01 01:58:03;;;;;;;12.38;6.90;;;486.80;2380.80;;;;;;5034690;28;20371;-79
2021/09/01 02:00:30;;;;;;;8.23;6.95;;;486.60;2380.80;;;;;;5035805;28;20465;-79
2021/09/01 02:02:56;;;;;;;10.48;6.82;;;486.50;2380.80;;;;;;5034828;28;20022;-79
2021/09/01 02:05:22;;;;;;;7.90;6.28;;;486.60;2380.80;;;;;;5035517;28;20385;-79
2021/09/01 02:07:48;;;;;;;8.82;6.40;;;486.50;2380.80;;;;;;5034698;28;20025;-79
2021/09/01 02:10:13;;;;;;;9.23;6.85;;;486.60;2380.80;;;;;;5034871;28;20032;-78
2021/09/01 02:12:40;;;;;;;7.70;6.78;;;486.50;2380.80;;;;;;5034427;28;20099;-78
2021/09/01 02:15:08;;;;;;;9.65;7.65;;;486.60;2380.80;;;;;;5036104;28;20028;-79
2021/09/01 02:17:34;;;;;;;13.13;7.40;;;486.60;2380.80;;;;;;5034583;28;20030;-79
2021/09/01 02:20:02;;;;;;;8.20;5.90;;;486.50;2380.80;;;;;;5034344;28;20083;-79
2021/09/01 02:22:28;;;;;;;11.70;7.47;;;486.50;2380.80;;;;;;5034741;28;20048;-80
2021/09/01 02:24:53;;;;;;;8.90;7.00;;;486.50;2380.80;;;;;;5034390;28;20454;-79
2021/09/01 02:27:20;;;;;;;8.30;6.43;;;486.40;2380.80;;;;;;5034253;28;20449;-79
2021/09/01 02:29:46;;;;;;;9.80;6.00;;;486.40;2380.80;;;;;;5033218;28;20489;-79
2021/09/01 02:32:12;;;;;;;9.48;6.75;;;486.40;2380.80;;;;;;5033420;28;20112;-80
2021/09/01 02:34:38;;;;;;;13.75;7.35;;;461.70;2380.80;;;;;;5033973;28;20374;-79
2021/09/01 02:37:04;;;;;;;10.68;7.25;;;486.40;2380.80;;;;;;5033217;28;20033;-79
2021/09/01 02:39:30;;;;;;;7.97;6.78;;;461.70;2380.80;;;;;;5033348;28;20453;-80
2021/09/01 02:41:56;;;;;;;9.75;6.97;;;461.70;2380.80;;;;;;5032859;28;20087;-80
2021/09/01 02:44:21;;;;;;;9.80;6.75;;;461.70;2380.80;;;;;;5033037;28;20385;-79
2021/09/01 02:46:47;;;;;;;7.85;6.53;;;461.70;2380.80;;;;;;5033912;28;20029;-79
2021/09/01 02:49:13;;;;;;;7.80;6.65;;;461.70;2380.80;;;;;;5034709;28;20021;-79
2021/09/01 02:51:39;;;;;;;8.52;6.63;;;461.70;2380.80;;;;;;5032997;28;20432;-79
2021/09/01 02:54:05;;;;;;;9.10;7.70;;;461.70;2380.80;;;;;;5032673;28;20030;-80
2021/09/01 02:56:31;;;;;;;11.98;8.60;;;461.40;2380.80;;;;;;5033142;28;20025;-79
2021/09/01 02:58:57;;;;;;;10.32;7.72;;;461.20;2380.80;;;;;;5032722;28;20033;-80
2021/09/01 03:01:23;;;;;;;12.88;8.13;;;461.30;2380.80;;;;;;5032500;28;20035;-79
2021/09/01 03:03:49;;;;;;;9.35;7.03;;;461.40;2380.80;;;;;;5034256;28;20109;-79
2021/09/01 03:06:15;;;;;;;8.63;7.47;;;461.40;2380.80;;;;;;5032805;28;20065;-78
2021/09/01 03:08:41;;;;;;;9.57;7.72;;;461.40;2380.80;;;;;;5032627;28;20030;-79
2021/09/01 03:11:07;;;;;;;7.45;6.65;;;461.40;2380.80;;;;;;5032659;28;20038;-79
2021/09/01 03:13:33;;;;;;;10.65;7.28;;;461.40;2380.80;;;;;;5032564;28;20060;-79
2021/09/01 03:15:59;;;;;;;8.63;7.68;;;461.50;2380.80;;;;;;5031794;28;20029;-79
2021/09/01 03:18:25;;;;;;;8.52;7.20;;;461.40;2380.80;;;;;;5033804;28;20461;-80
2021/09/01 03:20:51;;;;;;;9.77;7.63;;;461.40;2380.80;;;;;;5033538;28;20029;-79
2021/09/01 03:23:17;;;;;;;10.82;7.82;;;461.10;2380.80;;;;;;5032247;28;20026;-79
2021/09/01 03:25:43;;;;;;;10.55;8.18;;;461.00;2380.80;;;;;;5032433;28;20462;-79
2021/09/01 03:28:09;;;;;;;10.00;8.56;;;460.80;2380.80;;;;;;4988065;28;1270065;-80
2021/09/01 03:30:35;;;;;;;14.57;9.45;;;460.80;2380.80;;;;;;5032911;28;20042;-80
2021/09/01 03:33:01;;;;;;;10.27;8.70;;;436.00;2355.20;;;;;;5033147;28;20041;-82
2021/09/01 03:35:26;;;;;;;13.40;8.43;;;435.90;2355.20;;;;;;5034378;28;20523;-80
2021/09/01 03:37:53;;;;;;;9.70;8.40;;;435.80;2355.20;;;;;;5032707;28;20029;-82
2021/09/01 03:40:19;;;;;;;10.77;8.20;;;435.80;2355.20;;;;;;5033265;28;20030;-78
2021/09/01 03:42:45;;;;;;;9.10;7.85;;;436.00;2355.20;;;;;;5032828;28;20116;-78
2021/09/01 03:45:11;;;;;;;10.95;7.97;;;435.90;2355.20;;;;;;5033235;28;20117;-80
2021/09/01 03:47:37;;;;;;;11.63;8.48;;;436.00;2355.20;;;;;;5032875;28;20079;-79
2021/09/01 03:50:05;;;;;;;12.52;9.00;;;436.00;2355.20;;;;;;5032469;28;20037;-80
2021/09/01 03:52:31;;;;;;;10.23;8.20;;;435.90;2355.20;;;;;;5034089;28;20113;-80
2021/09/01 03:54:57;;;;;;;11.23;8.95;;;435.90;2355.20;;;;;;5032847;28;20532;-79
2021/09/01 03:57:23;;;;;;;10.13;8.52;;;435.90;2355.20;;;;;;5032474;28;20025;-83
2021/09/01 03:59:49;;;;;;;9.50;8.15;;;435.90;2355.20;;;;;;5032755;28;20029;-81
2021/09/01 04:02:15;;;;;;;10.13;8.85;;;435.80;2355.20;;;;;;5034042;28;20026;-81
2021/09/01 04:04:40;;;;;;;13.02;9.07;;;435.60;2355.20;;;;;;5034021;28;20030;-81
2021/09/01 04:07:06;;;;;;;9.65;8.60;;;435.70;2355.20;;;;;;5032613;28;20055;-80
2021/09/01 04:09:33;;;;;;;8.57;7.38;;;435.80;2355.20;;;;;;5032544;28;20496;-80
2021/09/01 04:11:59;;;;;;;10.68;8.30;;;435.90;2355.20;;;;;;5032181;28;20068;-79
2021/09/01 04:14:25;;;;;;;11.45;8.32;;;435.80;2355.20;;;;;;5033478;28;20037;-81
2021/09/01 04:16:51;;;;;;;9.43;7.45;;;435.90;2355.20;;;;;;5032431;28;20033;-79
2021/09/01 04:19:16;;;;;;;9.98;8.23;;;435.90;2355.20;;;;;;5032280;28;20152;-81
2021/09/01 04:21:42;;;;;;;12.55;8.60;;;435.90;2355.20;;;;;;5033528;28;20025;-79
2021/09/01 04:24:08;;;;;;;11.38;7.90;;;435.90;2355.20;;;;;;5033704;28;20089;-80
2021/09/01 04:26:34;;;;;;;10.70;8.35;;;435.90;2355.20;;;;;;5031620;28;20032;-81
2021/09/01 04:29:00;;;;;;;9.05;7.82;;;435.90;2355.20;;;;;;5031748;28;20413;-82
2021/09/01 04:31:26;;;;;;;11.82;7.85;;;435.80;2355.20;;;;;;5032269;28;20720;-81
2021/09/01 04:33:51;;;;;;;9.82;7.32;;;435.80;2355.20;;;;;;5032027;28;20022;-80
2021/09/01 04:36:18;;;;;;;13.07;8.98;;;435.60;2355.20;;;;;;5032251;28;20120;-80
2021/09/01 04:38:44;;;;;;;11.63;8.80;;;435.40;2355.20;;;;;;5032028;28;20473;-80
2021/09/01 04:41:10;;;;;;;12.57;7.80;;;435.50;2355.20;;;;;;5032225;28;20053;-81
2021/09/01 04:43:36;;;;;;;9.75;8.23;;;435.60;2355.20;;;;;;5032282;28;20045;-81
2021/09/01 04:46:02;;;;;;;12.07;7.78;;;435.60;2355.20;;;;;;5031998;28;20021;-80
2021/09/01 04:48:28;;;;;;;10.10;7.63;;;435.60;2355.20;;;;;;5032375;28;20045;-79
2021/09/01 04:50:53;;;;;;;10.95;8.05;;;435.70;2355.20;;;;;;5032135;28;20038;-80
2021/09/01 04:53:20;;;;;;;12.13;8.90;;;435.60;2355.20;;;;;;5031798;28;20029;-78
2021/09/01 04:55:46;;;;;;;10.07;8.32;;;435.60;2355.20;;;;;;5032129;28;20021;-81
2021/09/01 04:58:13;;;;;;;11.02;7.38;;;435.60;2355.20;;;;;;5032094;28;20026;-80
2021/09/01 05:00:39;;;;;;;12.32;8.00;;;435.70;2355.20;;;;;;5031785;28;20033;-81
2021/09/01 05:03:05;;;;;;;13.63;8.85;;;435.60;2355.20;;;;;;5032094;28;20025;-80
2021/09/01 05:05:31;;;;;;;10.93;8.77;;;435.60;2355.20;;;;;;5033569;28;20037;-80
2021/09/01 05:07:57;;;;;;;11.93;9.20;;;435.60;2355.20;;;;;;5031817;28;20026;-81
2021/09/01 05:10:23;;;;;;;11.20;8.35;;;435.60;2355.20;;;;;;5031893;28;20038;-81
2021/09/01 05:12:50;;;;;;;9.80;8.65;;;435.80;2355.20;;;;;;5033256;28;20071;-79
2021/09/01 05:15:17;;;;;;;14.82;9.38;;;435.90;2355.20;;;;;;5031795;28;20062;-80
2021/09/01 05:17:43;;;;;;;12.07;9.30;;;435.80;2355.20;;;;;;5032155;28;20458;-80
2021/09/01 05:20:10;;;;;;;13.50;9.00;;;435.60;2355.20;;;;;;5031886;28;20030;-79
2021/09/01 05:22:37;;;;;;;12.32;9.25;;;435.70;2355.20;;;;;;5031261;28;20116;-79
2021/09/01 05:25:10;;;;;;;14.68;10.52;;;435.70;2355.20;;;;;;5031765;28;20026;-83
2021/09/01 05:27:38;;;;;;;14.35;9.82;;;435.80;2355.20;;;;;;5031736;28;20029;-81
2021/09/01 05:30:07;;;;;;;14.23;10.25;;;435.60;2355.20;;;;;;5031852;28;20064;-80
2021/09/01 05:32:36;;;;;;;15.27;8.75;;;435.80;2355.20;;;;;;5031676;28;20042;-81
2021/09/01 05:35:03;;;;;;;12.15;8.85;;;436.00;2355.20;;;;;;5032734;28;20017;-79
2021/09/01 05:37:29;;;;;;;12.90;9.82;;;436.10;2355.20;;;;;;5032952;28;20030;-79
2021/09/01 05:39:59;;;;;;;12.40;9.45;;;460.80;2380.80;;;;;;5034628;28;20026;-79
2021/09/01 05:42:28;;;;;;;13.80;9.02;;;460.90;2380.80;;;;;;5036206;28;20099;-80
2021/09/01 05:44:55;;;;;;;13.45;9.30;;;461.00;2380.80;;;;;;5035327;28;20461;-79
2021/09/01 05:47:23;;;;;;;14.23;8.75;;;461.00;2380.80;;;;;;5035128;28;20032;-80
2021/09/01 05:49:50;;;;;;;12.68;9.27;;;461.10;2380.80;;;;;;5034293;28;20075;-80
2021/09/01 05:52:17;;;;;;;11.77;8.38;;;461.40;2380.80;;;;;;5036278;28;20453;-78
2021/09/01 05:54:50;;;;;;;14.38;7.95;;;461.50;2380.80;;;;;;5035909;28;20467;-79
2021/09/01 05:57:17;;;;;;;9.93;7.55;;;461.70;2380.80;;;;;;5034714;28;20025;-78
2021/09/01 05:59:48;;;;;;;9.23;7.57;;;486.40;2380.80;;;;;;5034931;28;20117;-78
2021/09/01 06:02:20;;;;;;;10.20;7.63;;;486.50;2380.80;;;;;;5036400;28;20105;-80
2021/09/01 06:04:47;;;;;;;;;;;486.70;2380.80;;;;;;5036363;28;20032;-79
2021/09/01 06:07:18;;;;;;;17.35;10.85;;;486.70;2380.80;;;;;;5035107;28;20055;-79
2021/09/01 06:09:45;;;;;;;10.05;7.90;;;486.70;2380.80;;;;;;5035504;28;20047;-79
2021/09/01 06:12:21;;;;;;;17.55;12.25;;;486.70;2380.80;;;;;;5034648;28;20030;-78
2021/09/01 06:14:47;;;;;;;12.30;9.27;;;486.70;2380.80;;;;;;5035947;28;20029;-79
2021/09/01 06:17:13;;;;;;;19.85;14.20;;;486.70;2380.80;;;;;;5034507;28;20027;-78
2021/09/01 06:19:39;;;;;;;15.18;9.85;;;486.80;2380.80;;;;;;5034570;28;20120;-78
2021/09/01 06:22:06;;;;;;;17.40;6.85;;;486.80;2380.80;;;;;;5034739;28;20029;-79
2021/09/01 06:24:32;;;;;;;14.52;9.48;;;486.80;2380.80;;;;;;5034093;28;20049;-80
2021/09/01 06:27:00;;;;;;;16.85;8.48;;;487.00;2380.80;;;;;;5035743;28;20032;-78
2021/09/01 06:29:25;;;;;;;11.90;6.95;;;487.10;2380.80;;;;;;5034317;28;20049;-78
2021/09/01 06:31:51;;;;;;;8.02;5.18;;;487.10;2380.80;;;;;;5034004;28;20037;-78
2021/09/01 06:34:17;;;;;;;8.07;4.85;;;487.30;2380.80;;;;;;5034469;28;20025;-79
2021/09/01 06:36:43;;;;;;;10.13;4.32;;;487.30;2380.80;;;;;;5034346;28;20466;-78
2021/09/01 06:39:09;;;;;;;6.53;4.28;;;512.00;2380.80;;;;;;5035250;28;20388;-78
2021/09/01 06:41:35;;;;;;;7.03;3.58;;;512.10;2380.80;;;;;;5034280;28;20056;-79
2021/09/01 06:44:01;;;;;;;7.72;3.60;;;512.20;2380.80;;;;;;5035316;28;20105;-79
2021/09/01 06:46:26;;;;;;;5.13;3.65;;;512.30;2380.80;;;;;;5033786;28;20025;-78
2021/09/01 06:48:52;;;;;;;7.13;2.97;;;512.20;2380.80;;;;;;5034104;28;20026;-77
2021/09/01 06:51:18;;;;;;;8.63;3.30;;;512.30;2380.80;;;;;;5032970;28;20060;-79
2021/09/01 06:53:44;;;;;;;5.40;3.60;;;512.30;2380.80;;;;;;5033629;28;20116;-79
2021/09/01 06:56:09;;;;;;;5.00;2.88;;;512.60;2380.80;;;;;;5033876;28;20022;-78
2021/09/01 06:58:36;;;;;;;11.32;3.60;;;512.70;2380.80;;;;;;5033801;28;20026;-79
2021/09/01 07:01:02;;;;;;;6.03;3.38;;;512.70;2380.80;;;;;;5035144;28;20053;-79
2021/09/01 07:03:28;;;;;;;8.55;3.80;;;512.80;2380.80;;;;;;5033903;28;20392;-79
2021/09/01 07:05:54;;;;;;;5.32;3.13;;;512.80;2380.80;;;;;;5033374;28;20030;-78
2021/09/01 07:08:23;;;;;;;6.05;3.58;;;537.60;2406.40;;;;;;5033689;28;20033;-79
2021/09/01 07:10:50;;;;;;;6.43;3.00;;;537.60;2406.40;;;;;;5033787;28;20033;-78
2021/09/01 07:13:18;;;;;;;4.43;2.80;;;537.70;2406.40;;;;;;5033369;28;20029;-79
2021/09/01 07:15:44;;;;;;;4.95;3.15;;;537.70;2406.40;;;;;;5033544;28;20037;-78
2021/09/01 07:18:11;;;;;;;5.25;2.50;;;537.80;2406.40;;;;;;5033535;28;20032;-78
2021/09/01 07:20:38;;;;;;;5.90;2.83;;;538.00;2406.40;;;;;;5034817;28;20026;-78
2021/09/01 07:23:04;;;;;;;4.55;2.83;;;538.00;2406.40;;;;;;5034368;28;20037;-78
2021/09/01 07:25:32;;;;;;;4.95;2.88;;;537.80;2406.40;;;;;;5034418;28;20527;-78
2021/09/01 07:27:59;;;;;;;4.85;3.03;;;537.90;2406.40;;;;;;5034543;28;20081;-78
2021/09/01 07:30:25;;;;;;;6.93;2.72;;;538.00;2406.40;;;;;;5034662;28;20041;-78
2021/09/01 07:32:50;;;;;;;4.22;2.85;;;538.00;2406.40;;;;;;5033119;28;20030;-78
2021/09/01 07:35:16;;;;;;;6.25;3.45;;;538.20;2406.40;;;;;;5032857;28;20060;-78
2021/09/01 07:37:47;;;;;;;7.10;3.15;;;538.30;2406.40;;;;;;5034216;28;20041;-78
2021/09/01 07:40:15;;;;;;;4.05;2.63;;;538.30;2406.40;;;;;;5033139;28;20036;-78
2021/09/01 07:42:43;;;;;;;5.60;3.03;;;538.30;2406.40;;;;;;5032725;28;20025;-77
2021/09/01 07:45:11;;;;;;;7.38;3.30;;;538.30;2406.40;;;;;;5032915;28;20385;-78
2021/09/01 07:47:37;;;;;;;4.90;2.83;;;538.50;2406.40;;;;;;5032754;28;20112;-77
2021/09/01 07:50:06;;;;;;;6.93;2.90;;;538.50;2406.40;;;;;;5032814;28;20030;-78
2021/09/01 07:52:32;;;;;;;5.32;3.33;;;563.20;2432.00;;;;;;5033758;28;20047;-77
2021/09/01 07:54:58;;;;;;;4.30;2.90;;;563.20;2432.00;;;;;;5032399;28;20140;-78
2021/09/01 07:57:23;;;;;;;3.92;2.30;;;563.40;2432.00;;;;;;5034019;28;20040;-78
2021/09/01 07:59:49;;;;;;;3.42;2.03;;;563.50;2432.00;;;;;;5033971;28;20024;-78
2021/09/01 08:02:15;;;;;;;3.30;2.25;;;563.60;2432.00;;;;;;5032349;28;20029;-79
2021/09/01 08:04:41;;;;;;;3.60;2.10;;;563.80;2432.00;;;;;;5033906;28;20208;-81
2021/09/01 08:07:06;;;;;;;3.90;1.85;;;563.90;2432.00;;;;;;5032637;28;20060;-80
2021/09/01 08:09:32;;;;;;;5.55;2.08;;;564.00;2432.00;;;;;;5032458;28;20071;-81
2021/09/01 08:11:58;;;;;;;3.20;1.80;;;564.00;2432.00;;;;;;5032572;28;20064;-79
2021/09/01 08:14:24;;;;;;;5.63;2.65;;;564.10;2432.00;;;;;;5032543;28;20029;-78
2021/09/01 08:16:50;;;;;;;3.97;2.08;;;588.90;2432.00;;;;;;5032136;28;20171;-78
2021/09/01 08:19:15;;;;;;;3.95;2.35;;;589.10;2432.00;;;;;;5032404;28;20029;-79
2021/09/01 08:21:41;;;;;;;3.55;2.00;;;589.20;2432.00;;;;;;5032237;28;20102;-78
2021/09/01 08:24:09;;;;;;;11.27;2.67;;;589.10;2432.00;;;;;;5031603;28;20030;-78
2021/09/01 08:26:34;;;;;;;4.13;2.33;;;589.00;2432.00;;;;;;5031711;28;20025;-78
2021/09/01 08:29:00;;;;;;;3.30;2.03;;;589.10;2432.00;;;;;;5031419;28;20046;-78
2021/09/01 08:31:26;;;;;;;4.07;2.22;;;589.10;2432.00;;;;;;5031403;28;20033;-79
2021/09/01 08:33:52;;;;;;;3.50;1.90;;;589.10;2432.00;;;;;;5031762;28;20369;-78
2021/09/01 08:36:18;;;;;;;3.50;1.90;;;589.10;2432.00;;;;;;5032764;28;20026;-78
2021/09/01 08:38:44;;;;;;;3.00;1.80;;;588.90;2432.00;;;;;;5027475;28;20097;-78
2021/09/01 08:41:10;;;;;;;3.97;1.77;;;588.90;2432.00;;;;;;5031683;28;20512;-79
2021/09/01 08:43:37;;;;;;;3.20;1.80;;;564.10;2432.00;;;;;;5032564;28;20033;-79
2021/09/01 08:46:03;;;;;;;3.33;1.90;;;588.80;2432.00;;;;;;5031787;28;20017;-79
2021/09/01 08:48:30;;;;;;;3.38;1.67;;;588.80;2432.00;;;;;;5031611;28;20091;-78
2021/09/01 08:50:56;;;;;;;3.22;1.85;;;588.80;2432.00;;;;;;5031562;28;20029;-80
2021/09/01 08:53:22;;;;;;;4.07;2.42;;;588.80;2432.00;;;;;;5032893;28;20072;-77
2021/09/01 08:55:51;;;;;;;3.42;1.90;;;588.80;2432.00;;;;;;5032600;28;20108;-77
2021/09/01 08:58:17;;;;;;;4.35;1.73;;;588.80;2432.00;;;;;;5031326;28;20466;-76
2021/09/01 09:00:44;;;;;;;3.90;2.20;;;588.80;2432.00;;;;;;5030262;28;20037;-77
2021/09/01 09:03:09;;;;;;;3.55;2.25;;;589.10;2432.00;;;;;;5032049;28;20071;-78
2021/09/01 09:05:37;;;;;;;3.13;1.80;;;589.10;2432.00;;;;;;5032471;28;20029;-78
2021/09/01 09:08:14;;;;;;;3.10;1.75;;;589.10;2432.00;;;;;;5035214;28;20029;-77
2021/09/01 09:10:45;;;;;;;4.65;2.00;;;589.10;2432.00;;;;;;5032255;28;20120;-76
2021/09/01 09:13:24;;;;;;;4.28;2.63;;;589.10;2432.00;;;;;;5034024;28;20109;-76
2021/09/01 09:16:08;;;;;;;4.57;2.42;;;589.20;2432.00;;;;;;5035637;28;20381;-77
2021/09/01 09:18:35;;;;;;;5.28;2.03;;;589.30;2432.00;;;;;;5036023;28;20458;-76
2021/09/01 09:21:33;;;;;;;3.55;2.10;;;589.30;2432.00;;;;;;5037054;28;20037;-77
2021/09/01 09:24:16;;;;;;;4.88;2.72;;;589.30;2432.00;;;;;;5035661;28;20025;-76
2021/09/01 09:26:43;;;;;;;3.53;1.98;;;589.40;2432.00;;;;;;5035611;28;20036;-77
2021/09/01 09:29:17;;;;;;;3.40;2.20;;;589.40;2432.00;;;;;;5035108;28;20052;-76
2021/09/01 09:32:03;;;;;;;5.00;2.13;;;589.40;2432.00;;;;;;5036958;28;20033;-77
2021/09/01 09:34:47;;;;;;;3.95;2.20;;;589.50;2432.00;;;;;;5036666;28;20388;-78
2021/09/01 09:37:14;;;;;;;3.90;2.22;;;589.50;2432.00;;;;;;5035455;28;20021;-78
2021/09/01 09:39:42;;;;;;;3.80;2.05;;;589.50;2432.00;;;;;;5035739;28;20029;-80
2021/09/01 09:42:10;;;;;;;6.25;4.30;;;589.50;2432.00;;;;;;5035502;28;20065;-78
2021/09/01 09:44:36;;;;;;;4.82;2.65;;;589.50;2432.00;;;;;;5036386;28;20104;-79
2021/09/01 09:47:02;;;;;;;3.92;2.47;;;589.40;2432.00;;;;;;5035139;28;20036;-77
2021/09/01 09:49:30;;;;;;;3.35;2.13;;;614.40;2432.00;;;;;;5036482;28;20029;-77
2021/09/01 09:51:57;;;;;;;4.70;1.90;;;589.20;2432.00;;;;;;5036322;28;20057;-78
2021/09/01 09:54:25;;;;;;;4.05;2.15;;;589.20;2432.00;;;;;;5036533;28;20071;-79
2021/09/01 09:57:04;;;;;;;3.10;1.80;;;589.20;2406.40;;;;;;5035232;28;20033;-79
2021/09/01 09:59:33;;;;;;;4.45;2.20;;;589.30;2432.00;;;;;;5036555;28;20492;-81
2021/09/01 10:01:59;;;;;;;3.42;1.92;;;589.30;2432.00;;;;;;5035218;28;20029;-80
2021/09/01 10:04:27;;;;;;;3.22;1.92;;;589.30;2432.00;;;;;;5035272;28;20071;-78
2021/09/01 10:06:53;;;;;;;6.53;2.53;;;589.30;2432.00;;;;;;5036272;28;20465;-81
2021/09/01 10:09:19;;;;;;;3.92;2.08;;;589.50;2432.00;;;;;;5035198;28;20120;-82
2021/09/01 10:11:51;;;;;;;4.07;1.70;;;589.50;2406.40;;;;;;5034918;28;20033;-81
2021/09/01 10:14:24;;;;;;;4.07;1.88;;;589.60;2355.20;;;;;;5036170;28;20045;-79
2021/09/01 10:17:04;;;;;;;4.13;2.10;;;589.50;2355.20;;;;;;5036241;28;20026;-80
2021/09/01 10:19:30;;;;;;;3.00;1.83;;;589.60;2355.20;;;;;;5034640;28;20032;-80
2021/09/01 10:22:05;;;;;;;5.13;2.22;;;589.50;2380.80;;;;;;5036267;28;20113;-80
2021/09/01 10:24:34;;;;;;;4.18;2.03;;;589.70;2304.00;;;;;;5036660;28;20504;-80
2021/09/01 10:27:32;;;;;;;3.75;1.95;;;614.80;2252.80;;;;;;5034368;28;20033;-82
2021/09/01 10:30:09;;;;;;;3.65;1.83;;;640.00;2201.60;;;;;;4984248;28;20049;-82
2021/09/01 10:32:51;;;;;;;3.15;2.00;;;640.20;2150.40;;;;;;4996071;28;20030;-79
2021/09/01 10:35:17;;;;;;;3.33;1.98;;;640.60;2150.40;;;;;;4999118;28;20029;-79
2021/09/01 10:37:44;;;;;;;5.90;2.38;;;665.60;2150.40;;;;;;4995733;28;20034;-78
2021/09/01 10:40:12;;;;;;;4.32;1.85;;;666.00;2124.80;;;;;;4994904;28;20477;-79
2021/09/01 10:42:39;;;;;;;3.63;2.05;;;665.70;2099.20;;;;;;4994823;28;20057;-79
2021/09/01 10:45:08;;;;;;;3.60;2.30;;;665.60;2124.80;;;;;;4995199;28;20030;-79
2021/09/01 10:47:52;;;;;;;3.88;1.92;;;640.60;2124.80;;;;;;4996278;28;20455;-79
2021/09/01 10:50:32;;;;;;;3.28;1.88;;;640.00;2099.20;;;;;;4994633;28;20056;-79
2021/09/01 10:53:15;;;;;;;3.60;2.22;;;615.20;2099.20;;;;;;4994317;28;20356;-79
2021/09/01 10:55:59;;;;;;;5.13;3.08;;;615.00;2150.40;;;;;;4995729;28;20378;-80
2021/09/01 10:58:30;;;;;;;4.95;3.00;;;614.90;2176.00;;;;;;4995956;28;20107;-79
2021/09/01 11:00:58;;;;;;;4.80;2.35;;;615.00;2176.00;;;;;;4996227;28;20088;-79
2021/09/01 11:03:36;;;;;;;5.40;2.50;;;614.90;2176.00;;;;;;4994798;28;20034;-78
2021/09/01 11:06:21;;;;;;;4.30;2.78;;;614.80;2176.00;;;;;;4994742;28;20026;-79
2021/09/01 11:09:13;;;;;;;4.57;2.53;;;614.80;2201.60;;;;;;4994612;28;20030;-79
2021/09/01 11:11:55;;;;;;;5.15;2.92;;;614.60;2201.60;;;;;;4995159;28;20038;-80
2021/09/01 11:14:38;;;;;;;4.35;2.60;;;614.60;2201.60;;;;;;4994500;28;20081;-78
2021/09/01 11:17:06;;;;;;;4.30;2.78;;;614.60;2227.20;;;;;;4994457;28;20117;-78
2021/09/01 11:19:32;;;;;;;6.93;3.00;;;614.60;2227.20;;;;;;4996011;28;20101;-79
2021/09/01 11:22:01;;;;;;;4.57;2.70;;;614.60;2252.80;;;;;;4993751;28;20481;-79
2021/09/01 11:24:26;;;;;;;5.53;2.67;;;614.50;2278.40;;;;;;4994542;28;20022;-80
2021/09/01 11:26:57;;;;;;;3.78;2.30;;;614.50;2252.80;;;;;;4994543;28;20026;-80
2021/09/01 11:29:31;;;;;;;6.72;2.90;;;589.70;2278.40;;;;;;5015751;28;20049;-78
2021/09/01 11:31:57;;;;;;;14.85;3.70;;;589.60;2252.80;;;;;;5033556;28;20033;-78
2021/09/01 11:34:22;;;;;;;24.60;4.43;;;589.50;2252.80;;;;;;5033445;28;20033;-78
2021/09/01 11:36:48;;;;;;;4.90;2.58;;;589.40;2278.40;;;;;;5032701;28;20124;-79
2021/09/01 11:39:16;;;;;;;7.53;3.00;;;589.30;2278.40;;;;;;5033426;28;20033;-79
2021/09/01 11:41:47;;;;;;;10.60;2.90;;;589.30;2278.40;;;;;;5033719;28;20033;-79
2021/09/01 11:44:14;;;;;;;4.35;2.80;;;589.20;2304.00;;;;;;5034115;28;20117;-79
2021/09/01 11:46:40;;;;;;;5.10;2.35;;;589.20;2329.60;;;;;;5033545;28;20022;-78
2021/09/01 11:49:09;;;;;;;5.20;2.80;;;589.20;2304.00;;;;;;5033150;28;20385;-79
2021/09/01 11:51:37;;;;;;;3.90;2.67;;;589.10;2329.60;;;;;;5033921;28;20026;-79
2021/09/01 11:54:03;;;;;;;3.95;2.45;;;589.00;2329.60;;;;;;5034595;28;20037;-82
2021/09/01 11:56:30;;;;;;;4.60;2.58;;;589.00;2355.20;;;;;;5034140;28;20456;-78
2021/09/01 11:59:02;;;;;;;5.47;3.00;;;589.00;2329.60;;;;;;5033210;28;20235;-79
2021/09/01 12:01:29;;;;;;;7.78;6.28;;;589.00;2355.20;;;;;;5033126;28;20496;-77
2021/09/01 12:03:56;;;;;;;5.05;2.72;;;589.20;2304.00;;;;;;5033913;28;20487;-78
2021/09/01 12:06:33;;;;;;;6.47;3.08;;;589.20;2329.60;;;;;;5033561;28;20026;-78
2021/09/01 12:08:59;;;;;;;4.45;2.67;;;589.30;2329.60;;;;;;5033039;28;20021;-79
2021/09/01 12:11:29;;;;;;;5.38;2.92;;;589.40;2329.60;;;;;;5033461;28;20112;-77
2021/09/01 12:14:08;;;;;;;5.20;2.83;;;589.50;2304.00;;;;;;5034995;28;20075;-77
2021/09/01 12:16:34;;;;;;;7.10;3.45;;;589.50;2304.00;;;;;;5046812;28;20465;-77